Time;durP1;ratioP1;P1;durP2;ratioP2;P2;SDS_P1;SDS_P2;PMS_P1;PMS_P2;Temp;Humidity;BMP_temperature;BMP_pressure;BME280_temperature;BME280_humidity;BME280_pressure;Samples;Min_cycle;Max_cycle;Signal;HPM_P1;HPM_P2
2023/08/22 00:01:03;;;;;;;;;;;;;;;;;;6212374;22;20289;-85
2023/08/22 00:03:29;;;;;;;;;;;;;;;;;;6235334;22;19974;-85
2023/08/22 00:05:56;;;;;;;;;;;;;;;;;;6213330;22;19926;-86
2023/08/22 00:08:21;;;;;;;;;;;;;;;;;;6211344;22;19915;-86
2023/08/22 00:10:47;;;;;;;;;;;;;;;;;;6213897;22;20359;-85
2023/08/22 00:13:13;;;;;;;;;;;;;;;;;;6211094;22;19926;-85
2023/08/22 00:15:39;;;;;;;;;;;;;;;;;;6262618;22;20363;-85
2023/08/22 00:18:05;;;;;;;;;;;;;;;;;;6212180;22;20016;-85
2023/08/22 00:20:32;;;;;;;;;;;;;;;;;;6207699;22;19926;-85
2023/08/22 00:22:58;;;;;;;;;;;;;;;;;;6212856;22;20012;-85
2023/08/22 00:25:24;;;;;;;;;;;;;;;;;;6208938;22;19915;-85
2023/08/22 00:27:50;;;;;;;;;;;;;;;;;;6212745;22;20023;-85
2023/08/22 00:30:18;;;;;;;;;;;;;;;;;;6265653;22;19999;-85
2023/08/22 00:32:44;;;;;;;;;;;;;;;;;;6212984;22;19957;-85
2023/08/22 00:35:10;;;;;;;;;;;;;;;;;;6211281;22;19923;-86
2023/08/22 00:37:36;;;;;;;;;;;;;;;;;;6232751;22;19945;-85
2023/08/22 00:40:03;;;;;;;;;;;;;;;;;;6236810;22;19977;-86
2023/08/22 00:42:29;;;;;;;;;;;;;;;;;;6209750;22;19923;-86
2023/08/22 00:44:55;;;;;;;;;;;;;;;;;;6212664;22;19922;-86
2023/08/22 00:47:21;;;;;;;;;;;;;;;;;;6234599;22;20246;-86
2023/08/22 00:49:47;;;;;;;;;;;;;;;;;;6212207;22;19930;-86
2023/08/22 00:52:13;;;;;;;;;;;;;;;;;;6237261;22;20015;-86
2023/08/22 00:54:41;;;;;;;;;;;;;;;;;;6208175;22;19954;-85
2023/08/22 00:57:24;;;;;;;;;;;;;;;;;;6211983;22;19919;-86
2023/08/22 00:59:50;;;;;;;;;;;;;;;;;;6212134;22;19965;-86
2023/08/22 01:02:17;;;;;;;;;;;;;;;;;;6210163;22;20318;-85
2023/08/22 01:04:45;;;;;;;;;;;;;;;;;;6209053;22;19919;-85
2023/08/22 01:07:11;;;;;;;;;;;;;;;;;;6238284;22;19969;-85
2023/08/22 01:09:37;;;;;;;;;;;;;;;;;;6210445;22;20178;-86
2023/08/22 01:12:03;;;;;;;;;;;;;;;;;;6211969;22;20226;-86
2023/08/22 01:14:30;;;;;;;;;;;;;;;;;;6210606;22;20024;-86
2023/08/22 01:16:55;;;;;;;;;;;;;;;;;;6236361;22;19954;-85
2023/08/22 01:19:22;;;;;;;;;;;;;;;;;;6235187;22;19919;-85
2023/08/22 01:21:47;;;;;;;;;;;;;;;;;;6236290;22;19919;-85
2023/08/22 01:24:13;;;;;;;;;;;;;;;;;;6211407;22;19927;-86
2023/08/22 01:26:40;;;;;;;;;;;;;;;;;;6236937;22;19919;-85
2023/08/22 01:29:08;;;;;;;;;;;;;;;;;;6212678;22;19919;-85
2023/08/22 01:31:34;;;;;;;;;;;;;;;;;;6209676;22;19923;-86
2023/08/22 01:34:04;;;;;;;;;;;;;;;;;;6236417;22;19927;-86
2023/08/22 01:36:39;;;;;;;;;;;;;;;;;;6208953;22;20473;-86
2023/08/22 01:39:07;;;;;;;;;;;;;;;;;;6210733;22;20247;-85
2023/08/22 01:41:42;;;;;;;;;;;;;;;;;;6212523;22;20018;-86
2023/08/22 01:44:07;;;;;;;;;;;;;;;;;;6236363;22;19919;-86
2023/08/22 01:46:43;;;;;;;;;;;;;;;;;;6207950;22;20263;-86
2023/08/22 01:49:09;;;;;;;;;;;;;;;;;;6211004;22;19965;-85
2023/08/22 01:51:35;;;;;;;;;;;;;;;;;;6234828;22;20435;-85
2023/08/22 01:54:01;;;;;;;;;;;;;;;;;;6236000;22;19930;-86
2023/08/22 01:56:27;;;;;;;;;;;;;;;;;;6234131;22;19930;-85
2023/08/22 01:58:53;;;;;;;;;;;;;;;;;;6213288;22;20037;-86
2023/08/22 02:01:19;;;;;;;;;;;;;;;;;;6209814;22;19990;-86
2023/08/22 02:03:46;;;;;;;;;;;;;;;;;;6211617;22;19923;-85
2023/08/22 02:06:12;;;;;;;;;;;;;;;;;;6237338;22;19923;-85
2023/08/22 02:08:39;;;;;;;;;;;;;;;;;;6210895;22;20296;-85
2023/08/22 02:11:05;;;;;;;;;;;;;;;;;;6236848;22;19990;-86
2023/08/22 02:13:31;;;;;;;;;;;;;;;;;;6210277;22;20304;-85
2023/08/22 02:16:05;;;;;;;;;;;;;;;;;;6211404;22;19961;-85
2023/08/22 02:18:31;;;;;;;;;;;;;;;;;;6232846;22;19919;-85
2023/08/22 02:20:57;;;;;;;;;;;;;;;;;;6211037;22;19919;-86
2023/08/22 02:23:26;;;;;;;;;;;;;;;;;;6260492;22;19923;-86
2023/08/22 02:25:52;;;;;;;;;;;;;;;;;;6212225;22;19923;-85
2023/08/22 02:28:18;;;;;;;;;;;;;;;;;;6235710;22;20364;-86
2023/08/22 02:30:52;;;;;;;;;;;;;;;;;;6211540;22;20346;-85
2023/08/22 02:33:18;;;;;;;;;;;;;;;;;;6233401;22;20336;-86
2023/08/22 02:35:44;;;;;;;;;;;;;;;;;;6208204;22;20364;-84
2023/08/22 02:38:10;;;;;;;;;;;;;;;;;;6233578;22;20427;-86
2023/08/22 02:40:36;;;;;;;;;;;;;;;;;;6233760;22;19919;-85
2023/08/22 02:43:02;;;;;;;;;;;;;;;;;;6210286;22;19985;-86
2023/08/22 02:45:28;;;;;;;;;;;;;;;;;;6208641;22;19920;-85
2023/08/22 02:47:54;;;;;;;;;;;;;;;;;;6210199;22;19973;-85
2023/08/22 02:50:23;;;;;;;;;;;;;;;;;;6234039;22;19919;-85
2023/08/22 02:52:58;;;;;;;;;;;;;;;;;;6212087;22;20279;-86
2023/08/22 02:55:24;;;;;;;;;;;;;;;;;;6232663;22;19938;-85
2023/08/22 02:57:50;;;;;;;;;;;;;;;;;;6210635;22;19915;-85
2023/08/22 03:05:19;;;;;;;;;;;;;;;;;;6243321;22;19923;-86
2023/08/22 03:07:45;;;;;;;;;;;;;;;;;;6210332;22;19923;-85
2023/08/22 03:10:14;;;;;;;;;;;;;;;;;;6211534;22;19926;-85
2023/08/22 03:18:26;;;;;;;;;;;;;;;;;;6285643;22;19919;-85
2023/08/22 03:20:52;;;;;;;;;;;;;;;;;;6241286;22;19919;-85
2023/08/22 03:23:42;;;;;;;;;;;;;;;;;;6240822;22;19930;-86
2023/08/22 03:26:14;;;;;;;;;;;;;;;;;;;;;
2023/08/22 03:28:46;;;;;;;;;;;;;;;;;;6170466;23;19927;-86
2023/08/22 03:31:12;;;;;;;;;;;;;;;;;;6145116;23;19920;-86
2023/08/22 03:33:40;;;;;;;;;;;;;;;;;;6144440;23;20625;-86
2023/08/22 03:41:56;;;;;;;;;;;;;;;;;;6240982;22;20312;-84
2023/08/22 03:44:25;;;;;;;;;;;;;;;;;;6240480;22;19922;-85
2023/08/22 03:46:53;;;;;;;;;;;;;;;;;;6267637;22;19990;-84
2023/08/22 03:49:32;;;;;;;;;;;;;;;;;;6269130;22;19923;-84
2023/08/22 03:52:04;;;;;;;;;;;;;;;;;;6240828;22;19923;-84
2023/08/22 03:54:34;;;;;;;;;;;;;;;;;;6265867;22;19926;-85
2023/08/22 04:00:04;;;;;;;;;;;;;;;;;;6306052;22;19934;-86
2023/08/22 04:02:30;;;;;;;;;;;;;;;;;;6267833;22;19973;-85
2023/08/22 04:07:59;;;;;;;;;;;;;;;;;;6228476;23;19920;-86
2023/08/22 04:10:25;;;;;;;;;;;;;;;;;;6202306;23;19919;-85
2023/08/22 04:12:51;;;;;;;;;;;;;;;;;;6180094;23;19924;-85
2023/08/22 04:15:19;;;;;;;;;;;;;;;;;;6178316;23;19923;-85
2023/08/22 04:23:21;;;;;;;;;;;;;;;;;;6240361;22;19957;-85
2023/08/22 04:25:47;;;;;;;;;;;;;;;;;;6266751;22;19919;-85
2023/08/22 04:28:13;;;;;;;;;;;;;;;;;;6237774;22;19946;-85
2023/08/22 04:30:39;;;;;;;;;;;;;;;;;;6263846;22;19990;-84
2023/08/22 04:33:05;;;;;;;;;;;;;;;;;;6266153;22;20293;-85
2023/08/22 04:35:31;;;;;;;;;;;;;;;;;;6267015;22;19993;-85
2023/08/22 04:38:04;;;;;;;;;;;;;;;;;;6242129;22;20005;-85
2023/08/22 04:40:30;;;;;;;;;;;;;;;;;;6239977;22;19990;-84
2023/08/22 04:42:56;;;;;;;;;;;;;;;;;;6267386;22;19962;-84
2023/08/22 04:45:22;;;;;;;;;;;;;;;;;;6265285;22;19964;-83
2023/08/22 04:47:56;;;;;;;;;;;;;;;;;;6268145;22;19919;-84
2023/08/22 04:50:22;;;;;;;;;;;;;;;;;;6266557;22;19915;-85
2023/08/22 04:52:51;;;;;;;;;;;;;;;;;;6242890;22;20346;-85
2023/08/22 04:55:17;;;;;;;;;;;;;;;;;;6267910;22;19934;-85
2023/08/22 04:57:43;;;;;;;;;;;;;;;;;;6240477;22;19951;-85
2023/08/22 05:00:09;;;;;;;;;;;;;;;;;;6267986;22;19926;-85
2023/08/22 05:02:35;;;;;;;;;;;;;;;;;;6266272;22;19931;-85
2023/08/22 05:05:03;;;;;;;;;;;;;;;;;;6243043;22;20257;-85
2023/08/22 05:07:29;;;;;;;;;;;;;;;;;;6241271;22;19984;-85
2023/08/22 05:09:55;;;;;;;;;;;;;;;;;;6244232;22;20395;-85
2023/08/22 05:15:23;;;;;;;;;;;;;;;;;;6216340;22;19927;-91
2023/08/22 05:17:49;;;;;;;;;;;;;;;;;;6264666;22;19930;-90
2023/08/22 05:20:18;;;;;;;;;;;;;;;;;;6242375;22;20494;-92
2023/08/22 05:22:44;;;;;;;;;;;;;;;;;;6269861;22;19926;-92
2023/08/22 05:25:10;;;;;;;;;;;;;;;;;;6270156;22;20294;-91
2023/08/22 05:27:38;;;;;;;;;;;;;;;;;;6266240;22;19922;-91
2023/08/22 05:30:07;;;;;;;;;;;;;;;;;;6269755;22;20285;-91
2023/08/22 05:32:33;;;;;;;;;;;;;;;;;;6267529;22;19919;-90
2023/08/22 05:34:59;;;;;;;;;;;;;;;;;;6268336;22;19915;-91
2023/08/22 05:37:25;;;;;;;;;;;;;;;;;;6268661;22;20248;-91
2023/08/22 05:39:53;;;;;;;;;;;;;;;;;;6244302;22;19915;-91
2023/08/22 05:45:15;;;;;;;;;;;;;;;;;;6171686;23;20362;-90
2023/08/22 05:47:41;;;;;;;;;;;;;;;;;;6173269;23;19987;-90
2023/08/22 05:50:10;;;;;;;;;;;;;;;;;;6150509;23;20067;-91
2023/08/22 05:52:36;;;;;;;;;;;;;;;;;;6150372;23;20499;-92
2023/08/22 05:55:02;;;;;;;;;;;;;;;;;;6174155;23;19930;-91
2023/08/22 05:57:29;;;;;;;;;;;;;;;;;;6148860;23;19920;-91
2023/08/22 05:59:55;;;;;;;;;;;;;;;;;;6152339;23;19920;-91
2023/08/22 06:02:24;;;;;;;;;;;;;;;;;;6175020;23;20258;-91
2023/08/22 06:04:55;;;;;;;;;;;;;;;;;;6154453;23;19934;-90
2023/08/22 06:07:24;;;;;;;;;;;;;;;;;;6152091;23;19998;-92
2023/08/22 06:09:50;;;;;;;;;;;;;;;;;;6153827;23;20533;-92
2023/08/22 06:12:16;;;;;;;;;;;;;;;;;;6152764;23;19920;-91
2023/08/22 06:14:53;;;;;;;;;;;;;;;;;;6153663;23;20432;-92
2023/08/22 06:17:19;;;;;;;;;;;;;;;;;;6230760;22;19919;-91
2023/08/22 06:19:48;;;;;;;;;;;;;;;;;;6239544;22;19977;-91
2023/08/22 06:22:25;;;;;;;;;;;;;;;;;;6237827;22;20037;-92
2023/08/22 06:24:51;;;;;;;;;;;;;;;;;;6265382;22;20283;-91
2023/08/22 06:27:20;;;;;;;;;;;;;;;;;;6236859;22;20296;-91
2023/08/22 06:29:46;;;;;;;;;;;;;;;;;;6237694;22;20395;-91
2023/08/22 06:32:12;;;;;;;;;;;;;;;;;;6264026;22;19919;-90
2023/08/22 06:34:38;;;;;;;;;;;;;;;;;;6261621;22;19947;-92
2023/08/22 06:37:06;;;;;;;;;;;;;;;;;;6238924;22;19934;-91
2023/08/22 06:39:32;;;;;;;;;;;;;;;;;;6263547;22;19923;-92
2023/08/22 06:42:05;;;;;;;;;;;;;;;;;;6239676;22;19915;-91
2023/08/22 06:44:31;;;;;;;;;;;;;;;;;;6261345;22;19962;-92
2023/08/22 06:46:57;;;;;;;;;;;;;;;;;;6238607;22;20339;-90
2023/08/22 06:49:26;;;;;;;;;;;;;;;;;;6231789;22;19922;-92
2023/08/22 06:51:52;;;;;;;;;;;;;;;;;;6258078;22;19927;-91
2023/08/22 06:54:20;;;;;;;;;;;;;;;;;;6233638;22;19919;-91
2023/08/22 06:56:46;;;;;;;;;;;;;;;;;;6233698;22;19919;-91
2023/08/22 06:59:12;;;;;;;;;;;;;;;;;;6259251;22;20298;-91
2023/08/22 07:01:39;;;;;;;;;;;;;;;;;;6231696;22;19949;-90
2023/08/22 07:04:05;;;;;;;;;;;;;;;;;;6235880;22;19958;-90
2023/08/22 07:06:31;;;;;;;;;;;;;;;;;;6232053;22;19954;-92
2023/08/22 07:08:57;;;;;;;;;;;;;;;;;;6260062;22;19954;-91
2023/08/22 07:11:25;;;;;;;;;;;;;;;;;;6257409;22;20320;-91
2023/08/22 07:14:05;;;;;;;;;;;;;;;;;;6260137;22;19919;-92
2023/08/22 07:16:34;;;;;;;;;;;;;;;;;;6254560;22;19942;-91
2023/08/22 07:19:06;;;;;;;;;;;;;;;;;;6261243;22;19923;-91
2023/08/22 07:21:34;;;;;;;;;;;;;;;;;;6230354;22;20234;-92
2023/08/22 07:24:04;;;;;;;;;;;;;;;;;;6233912;22;19919;-92
2023/08/22 07:26:32;;;;;;;;;;;;;;;;;;6257444;22;19986;-92
2023/08/22 07:28:59;;;;;;;;;;;;;;;;;;6233678;22;19998;-92
2023/08/22 07:31:32;;;;;;;;;;;;;;;;;;6228568;22;19919;-93
2023/08/22 07:33:58;;;;;;;;;;;;;;;;;;6234256;22;19947;-91
2023/08/22 07:36:24;;;;;;;;;;;;;;;;;;6232121;22;19919;-92
2023/08/22 07:38:50;;;;;;;;;;;;;;;;;;6234966;22;19923;-92
2023/08/22 07:41:19;;;;;;;;;;;;;;;;;;6236251;22;19990;-91
2023/08/22 07:43:58;;;;;;;;;;;;;;;;;;6261755;22;19919;-90
2023/08/22 07:46:28;;;;;;;;;;;;;;;;;;6258694;22;19930;-92
2023/08/22 07:48:54;;;;;;;;;;;;;;;;;;6236223;22;19923;-92
2023/08/22 07:51:20;;;;;;;;;;;;;;;;;;6232853;22;19997;-92
2023/08/22 07:53:46;;;;;;;;;;;;;;;;;;6234795;22;19963;-92
2023/08/22 07:59:18;;;;;;;;;;;;;;;;;;6280086;22;19914;-92
2023/08/22 08:01:47;;;;;;;;;;;;;;;;;;6231834;22;19919;-92
2023/08/22 08:04:13;;;;;;;;;;;;;;;;;;6233472;22;19977;-91
2023/08/22 08:06:39;;;;;;;;;;;;;;;;;;6233152;22;20795;-91
2023/08/22 08:09:08;;;;;;;;;;;;;;;;;;6234968;22;19921;-92
2023/08/22 08:11:34;;;;;;;;;;;;;;;;;;6235360;22;19933;-91
2023/08/22 08:14:01;;;;;;;;;;;;;;;;;;6236311;22;19919;-92
2023/08/22 08:16:27;;;;;;;;;;;;;;;;;;6257857;22;19928;-93
2023/08/22 08:18:53;;;;;;;;;;;;;;;;;;6231068;22;19923;-91
2023/08/22 08:21:19;;;;;;;;;;;;;;;;;;6234597;22;19919;-92
2023/08/22 08:23:45;;;;;;;;;;;;;;;;;;6262090;22;19920;-92
2023/08/22 08:26:11;;;;;;;;;;;;;;;;;;6235715;22;19928;-91
2023/08/22 08:28:38;;;;;;;;;;;;;;;;;;6259711;22;21024;-91
2023/08/22 08:31:04;;;;;;;;;;;;;;;;;;6235001;22;19985;-90
2023/08/22 08:33:37;;;;;;;;;;;;;;;;;;6234297;22;19919;-92
2023/08/22 08:36:05;;;;;;;;;;;;;;;;;;6236502;22;19971;-91
2023/08/22 08:38:34;;;;;;;;;;;;;;;;;;6231421;22;20241;-92
2023/08/22 08:44:13;;;;;;;;;;;;;;;;;;6220275;22;19968;-91
2023/08/22 08:46:42;;;;;;;;;;;;;;;;;;6261283;22;19930;-91
2023/08/22 08:49:08;;;;;;;;;;;;;;;;;;6262376;22;19926;-92
2023/08/22 08:51:34;;;;;;;;;;;;;;;;;;6261024;22;20006;-92
2023/08/22 08:54:20;;;;;;;;;;;;;;;;;;;;;
2023/08/22 08:56:48;;;;;;;;;;;;;;;;;;6261762;22;20404;-91
2023/08/22 08:59:14;;;;;;;;;;;;;;;;;;6236630;22;19969;-91
2023/08/22 09:01:40;;;;;;;;;;;;;;;;;;6259106;22;19919;-91
2023/08/22 09:04:25;;;;;;;;;;;;;;;;;;6236503;22;19919;-91
2023/08/22 09:06:52;;;;;;;;;;;;;;;;;;6261750;22;19927;-92
2023/08/22 09:09:20;;;;;;;;;;;;;;;;;;6235436;22;20299;-91
2023/08/22 09:29:22;;;;;;;;;;;;;;;;;;6259742;22;19926;-83
2023/08/22 09:42:55;;;;;;;;;;;;;;;;;;6284139;22;20407;-91
2023/08/22 09:45:39;;;;;;;;;;;;;;;;;;6240189;22;19996;-91
2023/08/22 09:48:15;;;;;;;;;;;;;;;;;;6241087;22;19940;-91
2023/08/22 09:50:44;;;;;;;;;;;;;;;;;;6241380;22;19919;-91
2023/08/22 09:53:28;;;;;;;;;;;;;;;;;;6239938;22;19925;-94
2023/08/22 09:56:27;;;;;;;;;;;;;;;;;;6216151;22;19925;-91
2023/08/22 09:59:01;;;;;;;;;;;;;;;;;;6265981;22;19918;-91
2023/08/22 10:10:23;;;;;;;;;;;;;;;;;;6305240;22;19936;-93
2023/08/22 10:13:23;;;;;;;;;;;;;;;;;;6240675;22;20404;-91
2023/08/22 10:19:07;;;;;;;;;;;;;;;;;;6252653;22;19982;-91
2023/08/22 10:53:58;;;;;;;;;;;;;;;;;;6078886;23;19917;-91
2023/08/22 11:05:41;;;;;;;;;;;;;;;;;;6026281;23;20402;-93
2023/08/22 14:57:24;;;;;;;;;;;;;;;;;;6269461;22;19927;-88
2023/08/22 14:59:50;;;;;;;;;;;;;;;;;;6234987;22;19938;-87
2023/08/22 15:02:19;;;;;;;;;;;;;;;;;;6261258;22;19919;-88
2023/08/22 15:04:45;;;;;;;;;;;;;;;;;;6236267;22;20398;-87
2023/08/22 15:07:11;;;;;;;;;;;;;;;;;;6264191;22;19925;-87
2023/08/22 15:09:41;;;;;;;;;;;;;;;;;;6291492;22;20269;-87
2023/08/22 15:12:07;;;;;;;;;;;;;;;;;;6239278;22;19947;-87
2023/08/22 15:14:32;;;;;;;;;;;;;;;;;;6238342;22;19968;-89
2023/08/22 15:16:58;;;;;;;;;;;;;;;;;;6239008;22;19926;-88
2023/08/22 15:19:24;;;;;;;;;;;;;;;;;;6289726;22;19961;-88
2023/08/22 15:21:50;;;;;;;;;;;;;;;;;;6291172;22;19954;-89
2023/08/22 15:24:17;;;;;;;;;;;;;;;;;;6237364;22;19993;-88
2023/08/22 15:26:56;;;;;;;;;;;;;;;;;;6259979;22;19923;-89
2023/08/22 15:29:23;;;;;;;;;;;;;;;;;;6228808;22;20178;-89
2023/08/22 15:31:49;;;;;;;;;;;;;;;;;;6208022;22;19919;-88
2023/08/22 15:34:14;;;;;;;;;;;;;;;;;;6205826;22;19930;-89
2023/08/22 15:36:40;;;;;;;;;;;;;;;;;;6205256;22;19923;-89
2023/08/22 15:39:06;;;;;;;;;;;;;;;;;;6206844;22;20231;-89
2023/08/22 15:41:34;;;;;;;;;;;;;;;;;;6229813;22;19930;-89
2023/08/22 15:44:00;;;;;;;;;;;;;;;;;;6206478;22;19923;-89
2023/08/22 15:46:25;;;;;;;;;;;;;;;;;;6201747;22;19926;-89
2023/08/22 15:48:51;;;;;;;;;;;;;;;;;;6205168;22;19926;-89
2023/08/22 15:51:17;;;;;;;;;;;;;;;;;;6203234;22;19954;-89
2023/08/22 15:53:43;;;;;;;;;;;;;;;;;;6229224;22;19946;-88
2023/08/22 15:56:09;;;;;;;;;;;;;;;;;;6204728;23;20461;-86
2023/08/22 15:58:35;;;;;;;;;;;;;;;;;;6223666;23;19942;-87
2023/08/22 16:01:01;;;;;;;;;;;;;;;;;;6230286;23;20345;-87
2023/08/22 16:03:27;;;;;;;;;;;;;;;;;;6221044;23;19924;-89
2023/08/22 16:05:53;;;;;;;;;;;;;;;;;;6201194;23;20037;-89
2023/08/22 16:08:19;;;;;;;;;;;;;;;;;;6225172;23;20220;-88
2023/08/22 16:10:45;;;;;;;;;;;;;;;;;;6227157;23;19926;-88
2023/08/22 16:13:11;;;;;;;;;;;;;;;;;;6196415;23;20382;-89
2023/08/22 16:15:37;;;;;;;;;;;;;;;;;;6200045;23;20298;-88
2023/08/22 16:18:04;;;;;;;;;;;;;;;;;;6224671;23;19925;-88
2023/08/22 16:20:30;;;;;;;;;;;;;;;;;;6224356;22;20490;-88
2023/08/22 16:22:56;;;;;;;;;;;;;;;;;;6195909;23;19926;-88
2023/08/22 16:25:22;;;;;;;;;;;;;;;;;;6227434;23;19926;-88
2023/08/22 16:27:48;;;;;;;;;;;;;;;;;;6226344;23;20284;-88
2023/08/22 16:30:15;;;;;;;;;;;;;;;;;;6200685;23;20124;-88
2023/08/22 16:32:41;;;;;;;;;;;;;;;;;;6224893;23;19954;-88
2023/08/22 16:35:07;;;;;;;;;;;;;;;;;;6229092;23;19966;-90
2023/08/22 16:37:33;;;;;;;;;;;;;;;;;;6201470;23;19927;-89
2023/08/22 16:39:59;;;;;;;;;;;;;;;;;;6203748;23;19926;-89
2023/08/22 16:42:28;;;;;;;;;;;;;;;;;;6225876;23;19919;-88
2023/08/22 16:44:54;;;;;;;;;;;;;;;;;;6227215;23;19930;-88
2023/08/22 16:47:20;;;;;;;;;;;;;;;;;;6197659;23;19963;-88
2023/08/22 16:49:47;;;;;;;;;;;;;;;;;;6228402;23;19920;-87
2023/08/22 16:52:13;;;;;;;;;;;;;;;;;;6205217;23;20318;-88
2023/08/22 16:54:39;;;;;;;;;;;;;;;;;;6200518;23;20386;-88
2023/08/22 16:57:05;;;;;;;;;;;;;;;;;;6197795;23;19994;-87
2023/08/22 16:59:31;;;;;;;;;;;;;;;;;;6200339;23;19990;-88
2023/08/22 17:01:59;;;;;;;;;;;;;;;;;;6229293;23;20235;-89
2023/08/22 17:04:25;;;;;;;;;;;;;;;;;;6225640;23;19923;-88
2023/08/22 17:06:51;;;;;;;;;;;;;;;;;;6232788;23;20348;-88
2023/08/22 17:09:20;;;;;;;;;;;;;;;;;;6234846;23;19916;-88
2023/08/22 17:11:46;;;;;;;;;;;;;;;;;;6205632;23;20252;-88
2023/08/22 17:14:12;;;;;;;;;;;;;;;;;;6200550;23;19924;-88
2023/08/22 17:16:38;;;;;;;;;;;;;;;;;;6224422;23;20254;-88
2023/08/22 17:19:04;;;;;;;;;;;;;;;;;;6201048;23;20341;-88
2023/08/22 17:21:30;;;;;;;;;;;;;;;;;;6201355;23;19994;-89
2023/08/22 17:23:56;;;;;;;;;;;;;;;;;;6204847;23;19923;-88
2023/08/22 17:26:22;;;;;;;;;;;;;;;;;;6201590;23;19924;-88
2023/08/22 17:28:48;;;;;;;;;;;;;;;;;;6201657;23;19954;-88
2023/08/22 17:31:14;;;;;;;;;;;;;;;;;;6202974;23;20023;-88
2023/08/22 17:33:40;;;;;;;;;;;;;;;;;;6200414;23;19974;-88
2023/08/22 17:36:06;;;;;;;;;;;;;;;;;;6205546;23;19942;-86
2023/08/22 17:38:32;;;;;;;;;;;;;;;;;;6226297;23;19920;-88
2023/08/22 17:40:58;;;;;;;;;;;;;;;;;;6224359;23;20295;-88
2023/08/22 17:43:24;;;;;;;;;;;;;;;;;;6199190;23;20615;-88
2023/08/22 17:45:51;;;;;;;;;;;;;;;;;;6202361;23;19930;-87
2023/08/22 17:48:20;;;;;;;;;;;;;;;;;;6202517;23;19934;-88
2023/08/22 17:50:46;;;;;;;;;;;;;;;;;;6200495;23;19931;-88
2023/08/22 17:53:12;;;;;;;;;;;;;;;;;;6229081;23;19915;-88
2023/08/22 17:55:39;;;;;;;;;;;;;;;;;;6201382;23;20302;-88
2023/08/22 17:58:05;;;;;;;;;;;;;;;;;;6203506;23;19919;-87
2023/08/22 18:00:31;;;;;;;;;;;;;;;;;;6226877;23;19923;-88
2023/08/22 18:02:57;;;;;;;;;;;;;;;;;;6201855;23;19923;-88
2023/08/22 18:05:23;;;;;;;;;;;;;;;;;;6200630;23;20456;-88
2023/08/22 18:07:49;;;;;;;;;;;;;;;;;;6228906;23;19920;-88
2023/08/22 19:31:56;;;;;;;;;;;;;;;;;;6169742;23;19924;-89
2023/08/22 19:44:01;;;;;;;;;;;;;;;;;;6165751;22;19942;-89
2023/08/22 20:56:58;;;;;;;;;;;;;;;;;;6265401;22;19954;-91
2023/08/22 20:59:43;;;;;;;;;;;;;;;;;;;;;
2023/08/22 21:02:37;;;;;;;;;;;;;;;;;;6292609;22;19918;-91
2023/08/22 21:05:16;;;;;;;;;;;;;;;;;;;;;
2023/08/22 21:10:42;;;;;;;;;;;;;;;;;;6244751;22;19919;-91
2023/08/22 21:13:31;;;;;;;;;;;;;;;;;;6256417;22;19926;-91
2023/08/22 21:18:45;;;;;;;;;;;;;;;;;;6231327;23;19920;-91
2023/08/22 21:24:35;;;;;;;;;;;;;;;;;;6238166;23;20404;-91
2023/08/22 21:27:04;;;;;;;;;;;;;;;;;;6181918;23;19927;-91
2023/08/22 21:29:36;;;;;;;;;;;;;;;;;;6179997;23;19923;-91
2023/08/22 21:32:02;;;;;;;;;;;;;;;;;;6176373;23;19954;-91
2023/08/22 21:34:28;;;;;;;;;;;;;;;;;;6176875;23;20329;-91
2023/08/22 21:37:00;;;;;;;;;;;;;;;;;;6178945;23;19919;-91
2023/08/22 21:39:31;;;;;;;;;;;;;;;;;;6179927;23;19926;-91
2023/08/22 21:42:03;;;;;;;;;;;;;;;;;;6196255;23;19955;-85
2023/08/22 21:44:44;;;;;;;;;;;;;;;;;;6177884;23;20344;-84
2023/08/22 21:47:18;;;;;;;;;;;;;;;;;;6202604;23;19920;-84
2023/08/22 21:50:05;;;;;;;;;;;;;;;;;;6202862;23;19923;-85
2023/08/22 21:52:42;;;;;;;;;;;;;;;;;;6204752;23;19922;-84
2023/08/22 21:55:16;;;;;;;;;;;;;;;;;;6206482;23;19919;-84
2023/08/22 22:01:03;;;;;;;;;;;;;;;;;;6194639;23;19920;-85
2023/08/22 22:03:50;;;;;;;;;;;;;;;;;;6167778;23;19924;-85
2023/08/22 22:12:29;;;;;;;;;;;;;;;;;;6137429;23;19924;-85
2023/08/22 22:15:04;;;;;;;;;;;;;;;;;;6141254;23;19998;-85
2023/08/22 22:17:46;;;;;;;;;;;;;;;;;;;;;
2023/08/22 22:23:23;;;;;;;;;;;;;;;;;;6078109;23;20048;-85
2023/08/22 22:26:21;;;;;;;;;;;;;;;;;;6099979;23;19921;-84
2023/08/22 22:32:14;;;;;;;;;;;;;;;;;;;;;
2023/08/22 22:35:21;;;;;;;;;;;;;;;;;;6110031;23;20019;-85
2023/08/22 22:49:52;;;;;;;;;;;;;;;;;;6247346;22;19949;-85
2023/08/22 22:55:46;;;;;;;;;;;;;;;;;;6209986;22;20407;-84
2023/08/22 23:01:43;;;;;;;;;;;;;;;;;;6182885;23;19927;-85
2023/08/22 23:20:22;;;;;;;;;;;;;;;;;;;;;
2023/08/22 23:26:24;;;;;;;;;;;;;;;;;;6183751;23;20261;-85
2023/08/22 23:29:19;;;;;;;;;;;;;;;;;;6241839;22;19930;-85
2023/08/22 23:40:24;;;;;;;;;;;;;;;;;;6261710;22;20289;-84
2023/08/22 23:42:53;;;;;;;;;;;;;;;;;;6266822;22;19969;-84
2023/08/22 23:45:35;;;;;;;;;;;;;;;;;;;;;
2023/08/22 23:51:06;;;;;;;;;;;;;;;;;;6247891;22;19942;-89
2023/08/22 23:53:33;;;;;;;;;;;;;;;;;;6227549;22;19923;-90
2023/08/22 23:55:59;;;;;;;;;;;;;;;;;;6261023;22;19922;-90
2023/08/22 23:58:27;;;;;;;;;;;;;;;;;;6264810;22;19909;-90
